Time,TemperatureF,DewpointF,PressureIn,WindDirection,WindDirectionDegrees,WindSpeedMPH,WindSpeedGustMPH,Humidity,HourlyPrecipIn,Conditions,Clouds,dailyrainin,SoftwareType,DateUTC
2013-02-07 00:01:00,36.0,4.0,-100.00,NE,55,7.0,10.0,26,-99.99,,,-99.99,,2013-02-07 08:01:00,
2013-02-07 00:11:00,36.0,4.0,-100.00,ENE,65,6.0,10.0,26,-99.99,,,-99.99,,2013-02-07 08:11:00,
2013-02-07 00:21:00,36.0,6.0,-100.00,NE,48,6.0,9.0,28,-99.99,,,-99.99,,2013-02-07 08:21:00,
2013-02-07 00:31:00,36.0,4.0,-100.00,ENE,61,6.0,11.0,25,-99.99,,,-99.99,,2013-02-07 08:31:00,
2013-02-07 00:41:00,35.0,8.0,-100.00,ENE,64,5.0,10.0,31,-99.99,,,-99.99,,2013-02-07 08:41:00,
2013-02-07 00:52:00,35.0,7.0,-100.00,ENE,66,4.0,8.0,30,-99.99,,,-99.99,,2013-02-07 08:52:00,
2013-02-07 01:01:00,34.0,7.0,-100.00,ENE,71,4.0,8.0,31,-99.99,,,-99.99,,2013-02-07 09:01:00,
2013-02-07 01:11:00,36.0,9.0,-100.00,ENE,66,4.0,7.0,32,-99.99,,,-99.99,,2013-02-07 09:11:00,
2013-02-07 01:21:00,35.0,8.0,-100.00,NE,54,5.0,9.0,32,-99.99,,,-99.99,,2013-02-07 09:21:00,
2013-02-07 01:31:00,34.0,9.0,-100.00,NE,55,5.0,8.0,35,-99.99,,,-99.99,,2013-02-07 09:31:00,
2013-02-07 01:41:00,35.0,6.0,-100.00,NE,48,5.0,8.0,29,-99.99,,,-99.99,,2013-02-07 09:41:00,
2013-02-07 01:51:00,35.0,9.0,-100.00,NE,47,5.0,7.0,33,-99.99,,,-99.99,,2013-02-07 09:51:00,
2013-02-07 02:01:00,35.0,6.0,-100.00,NE,40,5.0,9.0,28,-99.99,,,-99.99,,2013-02-07 10:01:00,
2013-02-07 02:11:00,36.0,5.0,-100.00,NNE,25,6.0,10.0,27,-99.99,,,-99.99,,2013-02-07 10:11:00,
2013-02-07 02:22:00,36.0,3.0,-100.00,NE,48,5.0,10.0,25,-99.99,,,-99.99,,2013-02-07 10:22:00,
2013-02-07 02:31:00,36.0,2.0,-100.00,NNE,20,4.0,8.0,23,-99.99,,,-99.99,,2013-02-07 10:31:00,
2013-02-07 02:41:00,36.0,2.0,-100.00,North,4,4.0,9.0,23,-99.99,,,-99.99,,2013-02-07 10:41:00,
2013-02-07 02:51:00,37.0,0.0,-100.00,North,3,6.0,10.0,21,-99.99,,,-99.99,,2013-02-07 10:51:00,
2013-02-07 03:01:00,36.0,0.0,-100.00,NNE,13,5.0,8.0,21,-99.99,,,-99.99,,2013-02-07 11:01:00,
2013-02-07 03:11:00,37.0,-2.0,-100.00,North,4,4.0,7.0,19,-99.99,,,-99.99,,2013-02-07 11:11:00,
2013-02-07 03:22:00,36.0,1.0,-100.00,North,6,4.0,9.0,22,-99.99,,,-99.99,,2013-02-07 11:22:00,
2013-02-07 03:32:00,36.0,-3.0,-100.00,NNW,347,5.0,7.0,18,-99.99,,,-99.99,,2013-02-07 11:32:00,
2013-02-07 03:43:00,36.0,-6.0,-100.00,NNE,31,6.0,11.0,16,-99.99,,,-99.99,,2013-02-07 11:43:00,
2013-02-07 03:52:00,37.0,-4.0,-100.00,NNE,18,6.0,12.0,17,-99.99,,,-99.99,,2013-02-07 11:52:00,
2013-02-07 04:01:00,36.0,-2.0,-100.00,NNE,31,6.0,13.0,19,-99.99,,,-99.99,,2013-02-07 12:01:00,
2013-02-07 04:11:00,36.0,-2.0,-100.00,ENE,68,7.0,15.0,19,-99.99,,,-99.99,,2013-02-07 12:11:00,
2013-02-07 04:22:00,36.0,-3.0,-100.00,NE,47,8.0,13.0,18,-99.99,,,-99.99,,2013-02-07 12:22:00,
2013-02-07 04:32:00,37.0,-4.0,-100.00,ENE,62,6.0,13.0,17,-99.99,,,-99.99,,2013-02-07 12:32:00,
2013-02-07 04:42:00,36.0,-6.0,-100.00,NE,40,6.0,11.0,16,-99.99,,,-99.99,,2013-02-07 12:42:00,
2013-02-07 04:52:00,36.0,-9.0,-100.00,NNE,21,4.0,7.0,14,-99.99,,,-99.99,,2013-02-07 12:52:00,
2013-02-07 05:02:00,35.0,-11.0,-100.00,NE,40,4.0,11.0,13,-99.99,,,-99.99,,2013-02-07 13:02:00,
2013-02-07 05:11:00,36.0,-12.0,-100.00,ENE,64,6.0,8.0,12,-99.99,,,-99.99,,2013-02-07 13:11:00,
2013-02-07 05:21:00,36.0,-7.0,-100.00,NE,48,8.0,13.0,15,-99.99,,,-99.99,,2013-02-07 13:21:00,
2013-02-07 05:32:00,35.0,-2.0,-100.00,East,80,7.0,13.0,20,-99.99,,,-99.99,,2013-02-07 13:32:00,
2013-02-07 05:42:00,35.0,-9.0,-100.00,East,79,5.0,9.0,14,-99.99,,,-99.99,,2013-02-07 13:42:00,
2013-02-07 05:51:00,34.0,-3.0,-100.00,ENE,72,5.0,10.0,20,-99.99,,,-99.99,,2013-02-07 13:51:00,
2013-02-07 06:01:00,36.0,-7.0,-100.00,NE,42,6.0,10.0,15,-99.99,,,-99.99,,2013-02-07 14:01:00,
2013-02-07 06:11:00,36.0,-9.0,-100.00,NNE,30,6.0,10.0,14,-99.99,,,-99.99,,2013-02-07 14:11:00,
2013-02-07 06:21:00,35.0,-12.0,-100.00,ENE,76,4.0,9.0,12,-99.99,,,-99.99,,2013-02-07 14:21:00,
2013-02-07 06:32:00,34.0,-11.0,-100.00,ENE,59,4.0,7.0,13,-99.99,,,-99.99,,2013-02-07 14:32:00,
2013-02-07 06:41:00,36.0,-12.0,-100.00,North,356,5.0,9.0,12,-99.99,,,-99.99,,2013-02-07 14:41:00,
2013-02-07 06:52:00,35.0,-9.0,-100.00,NE,52,5.0,12.0,14,-99.99,,,-99.99,,2013-02-07 14:52:00,
2013-02-07 07:01:00,33.0,15.0,-100.00,ENE,76,4.0,8.0,46,-99.99,,,-99.99,,2013-02-07 15:01:00,
2013-02-07 07:11:00,32.0,17.0,-100.00,NW,305,4.0,7.0,53,-99.99,,,-99.99,,2013-02-07 15:11:00,
2013-02-07 07:21:00,31.0,17.0,-100.00,SE,133,3.0,4.0,55,-99.99,,,-99.99,,2013-02-07 15:21:00,
2013-02-07 07:32:00,30.0,17.0,-100.00,NNE,20,2.0,3.0,57,-99.99,,,-99.99,,2013-02-07 15:32:00,
2013-02-07 07:41:00,30.0,17.0,-100.00,NNE,20,2.0,3.0,57,-99.99,,,-99.99,,2013-02-07 15:41:00,
2013-02-07 07:52:00,30.0,17.0,-100.00,NNE,20,2.0,3.0,57,-99.99,,,-99.99,,2013-02-07 15:52:00,
2013-02-07 08:01:00,30.0,17.0,-100.00,NNE,20,2.0,3.0,57,-99.99,,,-99.99,,2013-02-07 16:01:00,
2013-02-07 10:23:00,34.0,17.0,-100.00,NNE,27,5.0,10.0,48,-99.99,,,-99.99,,2013-02-07 18:23:00,
2013-02-07 10:31:00,34.0,16.0,-100.00,East,83,4.0,10.0,46,-99.99,,,-99.99,,2013-02-07 18:31:00,
2013-02-07 10:41:00,34.0,16.0,-100.00,WSW,244,12.0,23.0,49,-99.99,,,-99.99,,2013-02-07 18:41:00,
2013-02-07 10:51:00,33.0,15.0,-100.00,West,264,9.0,18.0,47,-99.99,,,-99.99,,2013-02-07 18:51:00,
2013-02-07 11:01:00,34.0,17.0,-100.00,NNE,17,4.0,8.0,48,-99.99,,,-99.99,,2013-02-07 19:01:00,
2013-02-07 11:11:00,34.0,17.0,-100.00,West,267,11.0,20.0,49,-99.99,,,-99.99,,2013-02-07 19:11:00,
2013-02-07 11:22:00,33.0,15.0,-100.00,WSW,250,14.0,25.0,46,-99.99,,,-99.99,,2013-02-07 19:22:00,
2013-02-07 11:31:00,34.0,17.0,-100.00,ESE,109,4.0,9.0,49,-99.99,,,-99.99,,2013-02-07 19:31:00,
2013-02-07 11:41:00,34.0,16.0,-100.00,NE,37,4.0,9.0,46,-99.99,,,-99.99,,2013-02-07 19:41:00,
2013-02-07 11:51:00,35.0,10.0,-100.00,North,0,3.0,6.0,35,-99.99,,,-99.99,,2013-02-07 19:51:00,
2013-02-07 12:01:00,35.0,10.0,-100.00,North,0,3.0,6.0,35,-99.99,,,-99.99,,2013-02-07 20:01:00,
2013-02-07 12:11:00,35.0,10.0,-100.00,North,0,3.0,6.0,35,-99.99,,,-99.99,,2013-02-07 20:11:00,
2013-02-07 12:21:00,35.0,10.0,-100.00,North,0,3.0,6.0,35,-99.99,,,-99.99,,2013-02-07 20:21:00,
2013-02-07 14:21:00,34.0,24.0,-100.00,NW,326,4.0,6.0,66,-99.99,,,-99.99,,2013-02-07 22:21:00,
2013-02-07 14:31:00,33.0,22.0,-100.00,North,8,2.0,4.0,65,-99.99,,,-99.99,,2013-02-07 22:31:00,
2013-02-07 14:42:00,32.0,22.0,-100.00,NNW,343,4.0,7.0,66,-99.99,,,-99.99,,2013-02-07 22:42:00,
2013-02-07 14:51:00,33.0,23.0,-100.00,North,349,5.0,8.0,66,-99.99,,,-99.99,,2013-02-07 22:51:00,
2013-02-07 15:01:00,33.0,24.0,-100.00,North,3,5.0,10.0,69,-99.99,,,-99.99,,2013-02-07 23:01:00,
2013-02-07 15:11:00,32.0,23.0,-100.00,WNW,291,7.0,14.0,67,-99.99,,,-99.99,,2013-02-07 23:11:00,
2013-02-07 15:21:00,32.0,23.0,-100.00,North,352,3.0,5.0,69,-99.99,,,-99.99,,2013-02-07 23:21:00,
2013-02-07 15:31:00,32.0,24.0,-100.00,WNW,299,4.0,10.0,72,-99.99,,,-99.99,,2013-02-07 23:31:00,
2013-02-07 15:41:00,32.0,24.0,-100.00,NNW,337,4.0,6.0,73,-99.99,,,-99.99,,2013-02-07 23:41:00,
2013-02-07 15:52:00,32.0,24.0,-100.00,NNW,337,5.0,7.0,70,-99.99,,,-99.99,,2013-02-07 23:52:00,
2013-02-07 16:01:00,31.0,22.0,-100.00,NNW,340,4.0,7.0,70,-99.99,,,-99.99,,2013-02-08 00:01:00,
2013-02-07 16:11:00,30.0,24.0,-100.00,NNW,344,5.0,9.0,77,-99.99,,,-99.99,,2013-02-08 00:11:00,
2013-02-07 16:21:00,29.0,26.0,-100.00,North,8,4.0,8.0,90,-99.99,,,-99.99,,2013-02-08 00:21:00,
2013-02-07 16:31:00,29.0,27.0,-100.00,NW,306,3.0,6.0,92,-99.99,,,-99.99,,2013-02-08 00:31:00,
2013-02-07 16:41:00,29.0,27.0,-100.00,WNW,285,3.0,8.0,91,-99.99,,,-99.99,,2013-02-08 00:41:00,
2013-02-07 16:52:00,27.0,26.0,-100.00,West,272,6.0,9.0,93,-99.99,,,-99.99,,2013-02-08 00:52:00,
2013-02-07 17:01:00,27.0,25.0,-100.00,West,268,5.0,8.0,94,-99.99,,,-99.99,,2013-02-08 01:01:00,
2013-02-07 17:11:00,27.0,26.0,-100.00,West,272,6.0,8.0,93,-99.99,,,-99.99,,2013-02-08 01:11:00,
2013-02-07 17:21:00,27.0,25.0,-100.00,West,272,5.0,8.0,91,-99.99,,,-99.99,,2013-02-08 01:21:00,
2013-02-07 17:31:00,27.0,25.0,-100.00,WNW,295,3.0,5.0,91,-99.99,,,-99.99,,2013-02-08 01:31:00,
2013-02-07 17:41:00,27.0,25.0,-100.00,North,359,2.0,6.0,92,-99.99,,,-99.99,,2013-02-08 01:41:00,
2013-02-07 17:51:00,26.0,23.0,-100.00,WSW,239,4.0,9.0,88,-99.99,,,-99.99,,2013-02-08 01:51:00,
2013-02-07 18:01:00,27.0,21.0,-100.00,WSW,251,9.0,22.0,79,-99.99,,,-99.99,,2013-02-08 02:01:00,
2013-02-07 18:11:00,27.0,22.0,-100.00,SW,234,3.0,7.0,81,-99.99,,,-99.99,,2013-02-08 02:11:00,
2013-02-07 18:21:00,27.0,19.0,-100.00,West,271,6.0,11.0,70,-99.99,,,-99.99,,2013-02-08 02:21:00,
2013-02-07 18:31:00,27.0,18.0,-100.00,NNE,21,3.0,8.0,68,-99.99,,,-99.99,,2013-02-08 02:31:00,
2013-02-07 18:42:00,26.0,17.0,-100.00,North,0,4.0,6.0,67,-99.99,,,-99.99,,2013-02-08 02:42:00,
2013-02-07 18:52:00,26.0,16.0,-100.00,ENE,66,4.0,7.0,65,-99.99,,,-99.99,,2013-02-08 02:52:00,
2013-02-07 19:01:00,25.0,16.0,-100.00,NE,54,2.0,4.0,67,-99.99,,,-99.99,,2013-02-08 03:01:00,
2013-02-07 19:12:00,25.0,15.0,-100.00,East,95,4.0,8.0,65,-99.99,,,-99.99,,2013-02-08 03:12:00,
2013-02-07 19:22:00,25.0,15.0,-100.00,East,100,3.0,5.0,66,-99.99,,,-99.99,,2013-02-08 03:22:00,
2013-02-07 19:31:00,24.0,14.0,-100.00,NE,48,2.0,5.0,63,-99.99,,,-99.99,,2013-02-08 03:31:00,
2013-02-07 19:41:00,24.0,14.0,-100.00,East,86,4.0,9.0,64,-99.99,,,-99.99,,2013-02-08 03:41:00,
2013-02-07 19:51:00,24.0,14.0,-100.00,East,86,4.0,9.0,64,-99.99,,,-99.99,,2013-02-08 03:51:00,
2013-02-07 20:01:00,24.0,14.0,-100.00,East,86,4.0,9.0,64,-99.99,,,-99.99,,2013-02-08 04:01:00,
2013-02-07 20:11:00,24.0,14.0,-100.00,East,86,4.0,9.0,64,-99.99,,,-99.99,,2013-02-08 04:11:00,
2013-02-07 22:21:00,23.0,14.0,-100.00,East,80,2.0,4.0,69,-99.99,,,-99.99,,2013-02-08 06:21:00,
2013-02-07 22:31:00,23.0,14.0,-100.00,ESE,103,1.0,3.0,69,-99.99,,,-99.99,,2013-02-08 06:31:00,
2013-02-07 22:41:00,23.0,15.0,-100.00,ENE,71,1.0,4.0,70,-99.99,,,-99.99,,2013-02-08 06:41:00,
2013-02-07 22:51:00,23.0,15.0,-100.00,East,100,1.0,3.0,71,-99.99,,,-99.99,,2013-02-08 06:51:00,
2013-02-07 23:01:00,23.0,14.0,-100.00,NE,54,0.0,0.0,69,-99.99,,,-99.99,,2013-02-08 07:01:00,
2013-02-07 23:11:00,23.0,13.0,-100.00,SE,126,2.0,6.0,67,-99.99,,,-99.99,,2013-02-08 07:11:00,
2013-02-07 23:21:00,23.0,13.0,-100.00,East,93,3.0,7.0,66,-99.99,,,-99.99,,2013-02-08 07:21:00,
2013-02-07 23:31:00,23.0,13.0,-100.00,East,97,1.0,3.0,66,-99.99,,,-99.99,,2013-02-08 07:31:00,
2013-02-07 23:42:00,23.0,14.0,-100.00,NE,54,1.0,3.0,67,-99.99,,,-99.99,,2013-02-08 07:42:00,
2013-02-07 23:51:00,23.0,14.0,-100.00,ENE,69,2.0,4.0,67,-99.99,,,-99.99,,2013-02-08 07:51:00,